sensor_id;sensor_type;location;lat;lon;timestamp;pressure;altitude;pressure_sealevel;temperature;humidity
75051;BME280;63628;47.656;11.310;2023-02-28T00:00:11;95128.47;;;0.80;80.76
75051;BME280;63628;47.656;11.310;2023-02-28T00:02:38;95127.50;;;0.81;80.66
75051;BME280;63628;47.656;11.310;2023-02-28T00:05:07;95116.25;;;0.81;80.10
75051;BME280;63628;47.656;11.310;2023-02-28T00:07:34;95119.03;;;0.79;80.57
75051;BME280;63628;47.656;11.310;2023-02-28T00:10:02;95127.50;;;0.81;80.41
75051;BME280;63628;47.656;11.310;2023-02-28T00:12:29;95120.66;;;0.80;80.08
75051;BME280;63628;47.656;11.310;2023-02-28T00:14:56;95113.00;;;0.79;80.06
75051;BME280;63628;47.656;11.310;2023-02-28T00:17:22;95119.03;;;0.79;80.58
75051;BME280;63628;47.656;11.310;2023-02-28T00:19:50;95116.59;;;0.78;79.92
75051;BME280;63628;47.656;11.310;2023-02-28T00:22:19;95117.56;;;0.77;80.05
75051;BME280;63628;47.656;11.310;2023-02-28T00:24:46;95113.97;;;0.78;80.51
75051;BME280;63628;47.656;11.310;2023-02-28T00:27:15;95121.16;;;0.76;80.19
75051;BME280;63628;47.656;11.310;2023-02-28T00:29:41;95113.00;;;0.79;80.17
75051;BME280;63628;47.656;11.310;2023-02-28T00:32:08;95113.34;;;0.76;80.33
75051;BME280;63628;47.656;11.310;2023-02-28T00:34:34;95115.13;;;0.75;79.63
75051;BME280;63628;47.656;11.310;2023-02-28T00:37:04;95118.53;;;0.76;79.93
75051;BME280;63628;47.656;11.310;2023-02-28T00:39:33;95115.28;;;0.74;79.97
75051;BME280;63628;47.656;11.310;2023-02-28T00:42:01;95111.72;;;0.75;80.09
75051;BME280;63628;47.656;11.310;2023-02-28T00:44:30;95106.66;;;0.73;80.09
75051;BME280;63628;47.656;11.310;2023-02-28T00:46:57;95108.44;;;0.73;80.02
75051;BME280;63628;47.656;11.310;2023-02-28T00:49:24;95105.69;;;0.74;79.96
75051;BME280;63628;47.656;11.310;2023-02-28T00:51:51;95103.56;;;0.70;79.43
75051;BME280;63628;47.656;11.310;2023-02-28T00:54:18;95104.38;;;0.70;80.27
75051;BME280;63628;47.656;11.310;2023-02-28T00:56:45;95107.97;;;0.69;79.67
75051;BME280;63628;47.656;11.310;2023-02-28T00:59:15;95105.38;;;0.69;79.55
75051;BME280;63628;47.656;11.310;2023-02-28T01:01:44;95102.94;;;0.68;80.12
75051;BME280;63628;47.656;11.310;2023-02-28T01:04:11;95105.53;;;0.68;79.91
75051;BME280;63628;47.656;11.310;2023-02-28T01:06:38;95103.91;;;0.67;79.85
75051;BME280;63628;47.656;11.310;2023-02-28T01:09:06;95089.25;;;0.66;79.56
75051;BME280;63628;47.656;11.310;2023-02-28T01:11:33;95094.59;;;0.64;79.17
75051;BME280;63628;47.656;11.310;2023-02-28T01:14:01;95090.22;;;0.64;79.55
75051;BME280;63628;47.656;11.310;2023-02-28T01:16:28;95091.03;;;0.65;79.82
75051;BME280;63628;47.656;11.310;2023-02-28T01:18:56;95089.38;;;0.64;79.35
75051;BME280;63628;47.656;11.310;2023-02-28T01:21:23;95087.94;;;0.61;79.57
75051;BME280;63628;47.656;11.310;2023-02-28T01:23:51;95083.53;;;0.62;79.87
75051;BME280;63628;47.656;11.310;2023-02-28T01:26:19;95090.22;;;0.64;79.70
75051;BME280;63628;47.656;11.310;2023-02-28T01:28:46;95088.91;;;0.60;79.08
75051;BME280;63628;47.656;11.310;2023-02-28T01:31:14;95085.50;;;0.60;79.43
75051;BME280;63628;47.656;11.310;2023-02-28T01:33:40;95083.88;;;0.59;79.67
75051;BME280;63628;47.656;11.310;2023-02-28T01:36:11;95088.41;;;0.57;78.90
75051;BME280;63628;47.656;11.310;2023-02-28T01:38:38;95078.97;;;0.56;79.40
75051;BME280;63628;47.656;11.310;2023-02-28T01:41:06;95083.38;;;0.55;79.42
75051;BME280;63628;47.656;11.310;2023-02-28T01:43:53;95077.34;;;0.55;79.50
75051;BME280;63628;47.656;11.310;2023-02-28T01:46:20;95077.69;;;0.52;79.68
75051;BME280;63628;47.656;11.310;2023-02-28T01:48:51;95084.34;;;0.54;79.25
75051;BME280;63628;47.656;11.310;2023-02-28T01:51:22;95074.44;;;0.50;79.63
75051;BME280;63628;47.656;11.310;2023-02-28T01:53:53;95078.81;;;0.49;79.19
75051;BME280;63628;47.656;11.310;2023-02-28T01:56:26;95071.81;;;0.50;79.51
75051;BME280;63628;47.656;11.310;2023-02-28T01:58:54;95079.63;;;0.17;71.67
75051;BME280;63628;47.656;11.310;2023-02-28T02:01:22;95090.66;;;-2.48;81.15
75051;BME280;63628;47.656;11.310;2023-02-28T02:03:51;95073.75;;;-0.01;81.19
75051;BME280;63628;47.656;11.310;2023-02-28T02:06:25;95067.13;;;0.29;80.17
75051;BME280;63628;47.656;11.310;2023-02-28T02:08:53;95068.81;;;-0.71;81.85
75051;BME280;63628;47.656;11.310;2023-02-28T02:11:21;95063.72;;;0.20;80.11
75051;BME280;63628;47.656;11.310;2023-02-28T02:14:09;95058.66;;;0.27;79.84
75051;BME280;63628;47.656;11.310;2023-02-28T02:16:42;95054.09;;;0.37;79.85
75051;BME280;63628;47.656;11.310;2023-02-28T02:19:44;95046.47;;;0.36;79.77
75051;BME280;63628;47.656;11.310;2023-02-28T02:22:58;95049.06;;;0.36;79.29
75051;BME280;63628;47.656;11.310;2023-02-28T02:25:32;95043.69;;;0.37;78.92
75051;BME280;63628;47.656;11.310;2023-02-28T02:28:17;95039.16;;;0.07;79.97
75051;BME280;63628;47.656;11.310;2023-02-28T02:31:06;95037.69;;;0.28;79.59
75051;BME280;63628;47.656;11.310;2023-02-28T02:34:08;95040.91;;;-1.11;77.86
75051;BME280;63628;47.656;11.310;2023-02-28T02:36:48;95038.34;;;0.14;79.66
75051;BME280;63628;47.656;11.310;2023-02-28T02:39:23;95025.81;;;0.26;79.32
75051;BME280;63628;47.656;11.310;2023-02-28T02:41:59;95032.81;;;0.25;78.89
75051;BME280;63628;47.656;11.310;2023-02-28T02:44:31;95032.81;;;0.25;79.11
75051;BME280;63628;47.656;11.310;2023-02-28T02:47:06;95034.28;;;0.28;79.06
75051;BME280;63628;47.656;11.310;2023-02-28T02:49:38;95029.56;;;0.23;78.88
75051;BME280;63628;47.656;11.310;2023-02-28T02:52:09;95029.06;;;0.28;78.61
75051;BME280;63628;47.656;11.310;2023-02-28T02:54:40;95034.06;;;-0.03;79.77
75051;BME280;63628;47.656;11.310;2023-02-28T02:57:12;95037.03;;;0.18;79.47
75051;BME280;63628;47.656;11.310;2023-02-28T02:59:41;95031.03;;;0.18;79.03
75051;BME280;63628;47.656;11.310;2023-02-28T03:02:11;95043.06;;;0.19;78.81
75051;BME280;63628;47.656;11.310;2023-02-28T03:04:43;95038.66;;;0.19;78.81
75051;BME280;63628;47.656;11.310;2023-02-28T03:07:12;95040.38;;;-0.38;68.69
75051;BME280;63628;47.656;11.310;2023-02-28T03:09:39;95047.25;;;-0.05;79.15
75051;BME280;63628;47.656;11.310;2023-02-28T03:12:09;95045.66;;;0.11;79.13
75051;BME280;63628;47.656;11.310;2023-02-28T03:14:46;95059.75;;;-1.52;78.78
75051;BME280;63628;47.656;11.310;2023-02-28T03:17:29;95054.72;;;-0.02;80.00
75051;BME280;63628;47.656;11.310;2023-02-28T03:20:07;95061.59;;;0.08;78.96
75051;BME280;63628;47.656;11.310;2023-02-28T03:22:45;95052.81;;;0.09;79.09
75051;BME280;63628;47.656;11.310;2023-02-28T03:25:21;95051.03;;;0.09;78.94
75051;BME280;63628;47.656;11.310;2023-02-28T03:28:00;95050.69;;;0.04;78.70
75051;BME280;63628;47.656;11.310;2023-02-28T03:30:34;95055.72;;;0.06;79.04
75051;BME280;63628;47.656;11.310;2023-02-28T03:33:07;95055.56;;;0.07;79.10
75051;BME280;63628;47.656;11.310;2023-02-28T03:35:39;95051.34;;;0.06;78.46
75051;BME280;63628;47.656;11.310;2023-02-28T03:38:11;95042.88;;;0.04;78.91
75051;BME280;63628;47.656;11.310;2023-02-28T03:40:44;95049.06;;;0.03;78.78
75051;BME280;63628;47.656;11.310;2023-02-28T03:43:18;95050.84;;;0.03;79.20
75051;BME280;63628;47.656;11.310;2023-02-28T03:45:47;95054.25;;;0.03;78.48
75051;BME280;63628;47.656;11.310;2023-02-28T03:48:19;95050.03;;;0.02;78.82
75051;BME280;63628;47.656;11.310;2023-02-28T03:50:51;95048.53;;;-0.01;78.84
75051;BME280;63628;47.656;11.310;2023-02-28T03:53:21;95055.69;;;-1.03;78.06
75051;BME280;63628;47.656;11.310;2023-02-28T03:55:53;95060.56;;;-0.16;79.33
75051;BME280;63628;47.656;11.310;2023-02-28T03:58:26;95061.53;;;-0.09;78.96
75051;BME280;63628;47.656;11.310;2023-02-28T04:00:59;95065.59;;;-0.06;78.68
75051;BME280;63628;47.656;11.310;2023-02-28T04:03:35;95062.19;;;-0.07;79.11
75051;BME280;63628;47.656;11.310;2023-02-28T04:06:04;95059.09;;;-0.10;78.82
75051;BME280;63628;47.656;11.310;2023-02-28T04:08:32;95064.47;;;-0.12;79.24
75051;BME280;63628;47.656;11.310;2023-02-28T04:11:01;95072.09;;;-0.10;78.48
75051;BME280;63628;47.656;11.310;2023-02-28T04:13:30;95069.81;;;-0.13;79.28
75051;BME280;63628;47.656;11.310;2023-02-28T04:15:57;95082.97;;;-0.15;79.21
75051;BME280;63628;47.656;11.310;2023-02-28T04:18:23;95087.22;;;-0.14;78.46
75051;BME280;63628;47.656;11.310;2023-02-28T04:20:50;95099.41;;;-0.14;78.19
75051;BME280;63628;47.656;11.310;2023-02-28T04:23:18;95091.75;;;-0.16;79.16
75051;BME280;63628;47.656;11.310;2023-02-28T04:25:45;95089.97;;;-0.15;78.62
75051;BME280;63628;47.656;11.310;2023-02-28T04:28:11;95092.72;;;-0.17;78.88
75051;BME280;63628;47.656;11.310;2023-02-28T04:30:38;95104.56;;;-1.68;79.15
75051;BME280;63628;47.656;11.310;2023-02-28T04:33:05;95124.09;;;-6.96;66.60
75051;BME280;63628;47.656;11.310;2023-02-28T04:35:32;95110.69;;;-3.14;85.99
75051;BME280;63628;47.656;11.310;2023-02-28T04:37:59;95103.13;;;-0.93;82.45
75051;BME280;63628;47.656;11.310;2023-02-28T04:40:26;95112.13;;;-0.53;80.04
75051;BME280;63628;47.656;11.310;2023-02-28T04:42:53;95111.19;;;-0.44;79.13
75051;BME280;63628;47.656;11.310;2023-02-28T04:45:20;95108.09;;;-0.40;79.15
75051;BME280;63628;47.656;11.310;2023-02-28T04:47:46;95108.75;;;-0.38;79.02
75051;BME280;63628;47.656;11.310;2023-02-28T04:50:13;95124.94;;;-3.76;59.92
75051;BME280;63628;47.656;11.310;2023-02-28T04:52:39;95120.63;;;-1.03;81.71
75051;BME280;63628;47.656;11.310;2023-02-28T04:55:07;95119.75;;;-0.52;79.50
75051;BME280;63628;47.656;11.310;2023-02-28T04:57:35;95118.78;;;-0.51;78.77
75051;BME280;63628;47.656;11.310;2023-02-28T05:00:02;95120.09;;;-0.47;78.70
75051;BME280;63628;47.656;11.310;2023-02-28T05:02:34;95114.59;;;-0.44;79.25
75051;BME280;63628;47.656;11.310;2023-02-28T05:05:00;95109.38;;;-0.44;78.76
75051;BME280;63628;47.656;11.310;2023-02-28T05:07:27;95113.13;;;-0.46;78.89
75051;BME280;63628;47.656;11.310;2023-02-28T05:09:53;95112.16;;;-0.45;79.14
75051;BME280;63628;47.656;11.310;2023-02-28T05:12:20;95121.72;;;-0.46;78.43
75051;BME280;63628;47.656;11.310;2023-02-28T05:14:48;95120.25;;;-0.48;79.03
75051;BME280;63628;47.656;11.310;2023-02-28T05:17:14;95118.63;;;-0.49;78.69
75051;BME280;63628;47.656;11.310;2023-02-28T05:19:41;95118.78;;;-0.51;78.87
75051;BME280;63628;47.656;11.310;2023-02-28T05:22:13;95134.41;;;-4.25;58.49
75051;BME280;63628;47.656;11.310;2023-02-28T05:24:40;95131.66;;;-3.08;82.74
75051;BME280;63628;47.656;11.310;2023-02-28T05:27:08;95125.34;;;-0.99;81.30
75051;BME280;63628;47.656;11.310;2023-02-28T05:29:35;95129.06;;;-0.67;79.28
75051;BME280;63628;47.656;11.310;2023-02-28T05:32:10;95129.63;;;-0.63;78.98
75051;BME280;63628;47.656;11.310;2023-02-28T05:34:37;95132.22;;;-0.63;78.46
75051;BME280;63628;47.656;11.310;2023-02-28T05:37:04;95137.25;;;-0.62;78.93
75051;BME280;63628;47.656;11.310;2023-02-28T05:39:31;95133.03;;;-0.63;78.31
75051;BME280;63628;47.656;11.310;2023-02-28T05:41:57;95137.25;;;-0.62;78.91
75051;BME280;63628;47.656;11.310;2023-02-28T05:44:24;95136.59;;;-1.16;78.16
75051;BME280;63628;47.656;11.310;2023-02-28T05:46:51;95134.91;;;-0.73;78.98
75051;BME280;63628;47.656;11.310;2023-02-28T05:49:19;95130.19;;;-0.70;78.42
75051;BME280;63628;47.656;11.310;2023-02-28T05:51:45;95142.06;;;-0.67;78.68
75051;BME280;63628;47.656;11.310;2023-02-28T05:54:12;95145.47;;;-0.67;78.38
75051;BME280;63628;47.656;11.310;2023-02-28T05:56:39;95152.47;;;-0.67;78.55
75051;BME280;63628;47.656;11.310;2023-02-28T05:59:07;95143.34;;;-0.71;78.64
75051;BME280;63628;47.656;11.310;2023-02-28T06:01:35;95149.38;;;-0.71;78.77
75051;BME280;63628;47.656;11.310;2023-02-28T06:04:04;95154.72;;;-0.72;78.89
75051;BME280;63628;47.656;11.310;2023-02-28T06:06:33;95160.56;;;-0.70;78.81
75051;BME280;63628;47.656;11.310;2023-02-28T06:09:03;95166.56;;;-1.39;67.67
75051;BME280;63628;47.656;11.310;2023-02-28T06:11:31;95165.06;;;-0.80;79.32
75051;BME280;63628;47.656;11.310;2023-02-28T06:14:00;95162.00;;;-0.76;79.07
75051;BME280;63628;47.656;11.310;2023-02-28T06:16:27;95171.41;;;-0.75;78.70
75051;BME280;63628;47.656;11.310;2023-02-28T06:18:56;95175.81;;;-0.75;78.55
75051;BME280;63628;47.656;11.310;2023-02-28T06:21:24;95180.34;;;-0.77;78.63
75051;BME280;63628;47.656;11.310;2023-02-28T06:23:52;95181.16;;;-0.77;79.03
75051;BME280;63628;47.656;11.310;2023-02-28T06:26:19;95189.75;;;-0.76;78.52
75051;BME280;63628;47.656;11.310;2023-02-28T06:28:46;95191.69;;;-0.78;78.96
75051;BME280;63628;47.656;11.310;2023-02-28T06:31:14;95186.50;;;-0.78;78.31
75051;BME280;63628;47.656;11.310;2023-02-28T06:33:42;95197.56;;;-0.76;78.21
75051;BME280;63628;47.656;11.310;2023-02-28T06:36:09;95199.94;;;-1.80;75.61
75051;BME280;63628;47.656;11.310;2023-02-28T06:38:37;95201.00;;;-0.93;78.85
75051;BME280;63628;47.656;11.310;2023-02-28T06:41:05;95199.44;;;-0.86;78.65
75051;BME280;63628;47.656;11.310;2023-02-28T06:43:34;95203.50;;;-0.84;79.10
75051;BME280;63628;47.656;11.310;2023-02-28T06:46:04;95205.81;;;-0.81;78.32
75051;BME280;63628;47.656;11.310;2023-02-28T06:48:31;95205.88;;;-1.52;75.36
75051;BME280;63628;47.656;11.310;2023-02-28T06:51:01;95210.47;;;-1.64;77.86
75051;BME280;63628;47.656;11.310;2023-02-28T06:53:28;95211.84;;;-0.98;79.29
75051;BME280;63628;47.656;11.310;2023-02-28T06:55:54;95207.69;;;-0.91;78.82
75051;BME280;63628;47.656;11.310;2023-02-28T06:58:22;95210.78;;;-0.87;78.53
75051;BME280;63628;47.656;11.310;2023-02-28T07:00:51;95214.34;;;-0.88;78.87
75051;BME280;63628;47.656;11.310;2023-02-28T07:03:18;95217.78;;;-0.88;78.60
75051;BME280;63628;47.656;11.310;2023-02-28T07:05:45;95219.41;;;-0.87;78.52
75051;BME280;63628;47.656;11.310;2023-02-28T07:08:12;95230.75;;;-0.88;78.72
75051;BME280;63628;47.656;11.310;2023-02-28T07:10:38;95226.03;;;-0.92;78.60
75051;BME280;63628;47.656;11.310;2023-02-28T07:13:06;95225.06;;;-0.91;78.39
75051;BME280;63628;47.656;11.310;2023-02-28T07:15:35;95221.78;;;-0.93;79.13
75051;BME280;63628;47.656;11.310;2023-02-28T07:18:06;95233.81;;;-0.92;78.77
75051;BME280;63628;47.656;11.310;2023-02-28T07:20:33;95241.59;;;-0.92;79.02
75051;BME280;63628;47.656;11.310;2023-02-28T07:22:59;95239.81;;;-0.92;78.81
75051;BME280;63628;47.656;11.310;2023-02-28T07:25:27;95242.56;;;-0.93;79.19
75051;BME280;63628;47.656;11.310;2023-02-28T07:27:55;95231.38;;;-0.94;78.76
75051;BME280;63628;47.656;11.310;2023-02-28T07:30:22;95238.34;;;-0.94;78.86
75051;BME280;63628;47.656;11.310;2023-02-28T07:32:50;95230.56;;;-0.94;79.04
75051;BME280;63628;47.656;11.310;2023-02-28T07:35:17;95235.75;;;-0.94;79.15
75051;BME280;63628;47.656;11.310;2023-02-28T07:37:43;95245.16;;;-0.93;78.52
75051;BME280;63628;47.656;11.310;2023-02-28T07:40:11;95252.97;;;-0.93;79.02
75051;BME280;63628;47.656;11.310;2023-02-28T07:42:39;95254.75;;;-0.94;78.74
75051;BME280;63628;47.656;11.310;2023-02-28T07:45:07;95249.84;;;-0.97;79.09
75051;BME280;63628;47.656;11.310;2023-02-28T07:47:34;95252.97;;;-0.93;78.74
75051;BME280;63628;47.656;11.310;2023-02-28T07:50:03;95256.66;;;-0.96;78.82
75051;BME280;63628;47.656;11.310;2023-02-28T07:52:29;95256.66;;;-0.96;79.05
75051;BME280;63628;47.656;11.310;2023-02-28T07:54:56;95256.81;;;-0.98;79.13
75051;BME280;63628;47.656;11.310;2023-02-28T07:57:23;95253.41;;;-0.98;78.86
75051;BME280;63628;47.656;11.310;2023-02-28T07:59:49;95256.81;;;-0.98;78.73
75051;BME280;63628;47.656;11.310;2023-02-28T08:02:17;95255.19;;;-0.99;79.22
75051;BME280;63628;47.656;11.310;2023-02-28T08:04:44;95254.38;;;-0.99;79.37
75051;BME280;63628;47.656;11.310;2023-02-28T08:07:14;95258.44;;;-0.97;78.92
75051;BME280;63628;47.656;11.310;2023-02-28T08:09:40;95263.66;;;-0.97;78.52
75051;BME280;63628;47.656;11.310;2023-02-28T08:12:08;95263.13;;;-1.00;79.28
75051;BME280;63628;47.656;11.310;2023-02-28T08:14:35;95262.00;;;-3.18;72.16
75051;BME280;63628;47.656;11.310;2023-02-28T08:17:02;95261.47;;;-1.54;80.39
75051;BME280;63628;47.656;11.310;2023-02-28T08:19:29;95258.25;;;-1.21;78.86
75051;BME280;63628;47.656;11.310;2023-02-28T08:21:55;95262.19;;;-1.17;78.88
75051;BME280;63628;47.656;11.310;2023-02-28T08:24:24;95266.94;;;-1.12;78.79
75051;BME280;63628;47.656;11.310;2023-02-28T08:26:50;95258.03;;;-1.10;78.66
75051;BME280;63628;47.656;11.310;2023-02-28T08:29:17;95258.97;;;-1.11;79.03
75051;BME280;63628;47.656;11.310;2023-02-28T08:31:43;95262.41;;;-1.10;79.15
75051;BME280;63628;47.656;11.310;2023-02-28T08:34:12;95257.50;;;-1.13;76.17
75051;BME280;63628;47.656;11.310;2023-02-28T08:36:39;95255.94;;;-2.71;70.89
75051;BME280;63628;47.656;11.310;2023-02-28T08:39:06;95261.66;;;-2.20;74.26
75051;BME280;63628;47.656;11.310;2023-02-28T08:41:34;95264.59;;;-2.99;73.37
75051;BME280;63628;47.656;11.310;2023-02-28T08:44:01;95253.53;;;-1.71;80.55
75051;BME280;63628;47.656;11.310;2023-02-28T08:46:28;95257.63;;;-1.33;79.14
75051;BME280;63628;47.656;11.310;2023-02-28T08:48:55;95257.06;;;-1.26;77.42
75051;BME280;63628;47.656;11.310;2023-02-28T08:51:26;95256.63;;;-1.22;78.65
75051;BME280;63628;47.656;11.310;2023-02-28T08:53:54;95259.25;;;-1.32;77.36
75051;BME280;63628;47.656;11.310;2023-02-28T08:56:21;95263.84;;;-2.16;71.78
75051;BME280;63628;47.656;11.310;2023-02-28T08:58:50;95265.78;;;-1.45;79.93
75051;BME280;63628;47.656;11.310;2023-02-28T09:01:18;95269.91;;;-1.25;79.31
75051;BME280;63628;47.656;11.310;2023-02-28T09:03:46;95277.38;;;-1.22;78.55
75051;BME280;63628;47.656;11.310;2023-02-28T09:06:15;95272.88;;;-1.20;77.81
75051;BME280;63628;47.656;11.310;2023-02-28T09:08:42;95274.97;;;-1.33;79.02
75051;BME280;63628;47.656;11.310;2023-02-28T09:11:09;95275.72;;;-1.41;77.68
75051;BME280;63628;47.656;11.310;2023-02-28T09:13:37;95285.03;;;-3.15;76.32
75051;BME280;63628;47.656;11.310;2023-02-28T09:16:07;95288.69;;;-2.23;79.39
75051;BME280;63628;47.656;11.310;2023-02-28T09:18:36;95298.34;;;-2.72;75.13
75051;BME280;63628;47.656;11.310;2023-02-28T09:21:04;95293.00;;;-2.70;74.93
75051;BME280;63628;47.656;11.310;2023-02-28T09:23:31;95294.56;;;-1.84;80.46
75051;BME280;63628;47.656;11.310;2023-02-28T09:25:58;95298.66;;;-1.64;78.23
75051;BME280;63628;47.656;11.310;2023-02-28T09:28:24;95299.88;;;-1.40;79.51
75051;BME280;63628;47.656;11.310;2023-02-28T09:30:53;95309.38;;;-2.79;75.48
75051;BME280;63628;47.656;11.310;2023-02-28T09:33:21;95314.97;;;-2.84;77.24
75051;BME280;63628;47.656;11.310;2023-02-28T09:35:48;95318.13;;;-2.90;76.14
75051;BME280;63628;47.656;11.310;2023-02-28T09:38:16;95322.88;;;-3.24;78.23
75051;BME280;63628;47.656;11.310;2023-02-28T09:40:48;95322.84;;;-1.90;81.47
75051;BME280;63628;47.656;11.310;2023-02-28T09:43:17;95314.63;;;-1.58;80.40
75051;BME280;63628;47.656;11.310;2023-02-28T09:45:49;95319.03;;;-1.69;76.15
75051;BME280;63628;47.656;11.310;2023-02-28T09:48:23;95324.19;;;-2.43;79.85
75051;BME280;63628;47.656;11.310;2023-02-28T09:50:55;95326.69;;;-1.67;79.26
75051;BME280;63628;47.656;11.310;2023-02-28T09:53:26;95318.88;;;-1.40;80.29
75051;BME280;63628;47.656;11.310;2023-02-28T09:55:57;95328.25;;;-1.29;80.61
75051;BME280;63628;47.656;11.310;2023-02-28T09:58:28;95334.41;;;-1.30;80.09
75051;BME280;63628;47.656;11.310;2023-02-28T10:01:01;95323.88;;;-1.29;80.13
75051;BME280;63628;47.656;11.310;2023-02-28T10:03:36;95331.53;;;-1.27;79.77
75051;BME280;63628;47.656;11.310;2023-02-28T10:06:08;95332.50;;;-1.38;80.04
75051;BME280;63628;47.656;11.310;2023-02-28T10:08:39;95338.75;;;-1.31;79.49
75051;BME280;63628;47.656;11.310;2023-02-28T10:11:13;95338.34;;;-1.26;79.06
75051;BME280;63628;47.656;11.310;2023-02-28T10:13:48;95335.75;;;-1.26;79.92
75051;BME280;63628;47.656;11.310;2023-02-28T10:16:21;95342.56;;;-1.25;79.17
75051;BME280;63628;47.656;11.310;2023-02-28T10:18:52;95341.13;;;-1.92;77.03
75051;BME280;63628;47.656;11.310;2023-02-28T10:21:24;95342.81;;;-1.46;79.15
75051;BME280;63628;47.656;11.310;2023-02-28T10:23:59;95346.31;;;-1.92;74.33
75051;BME280;63628;47.656;11.310;2023-02-28T10:26:29;95355.59;;;-1.35;80.17
75051;BME280;63628;47.656;11.310;2023-02-28T10:28:57;95357.03;;;-1.22;79.58
75051;BME280;63628;47.656;11.310;2023-02-28T10:31:24;95362.91;;;-1.20;79.89
75051;BME280;63628;47.656;11.310;2023-02-28T10:33:53;95347.91;;;-1.26;75.74
75051;BME280;63628;47.656;11.310;2023-02-28T10:36:20;95351.41;;;-1.18;72.38
75051;BME280;63628;47.656;11.310;2023-02-28T10:38:48;95347.13;;;-1.09;72.58
75051;BME280;63628;47.656;11.310;2023-02-28T10:41:26;95349.63;;;-1.17;75.69
75051;BME280;63628;47.656;11.310;2023-02-28T10:44:12;95353.47;;;-1.21;79.31
75051;BME280;63628;47.656;11.310;2023-02-28T10:46:40;95357.56;;;-1.19;79.59
75051;BME280;63628;47.656;11.310;2023-02-28T10:49:14;95361.50;;;-1.15;79.56
75051;BME280;63628;47.656;11.310;2023-02-28T10:51:44;95367.06;;;-1.10;79.43
75051;BME280;63628;47.656;11.310;2023-02-28T10:54:15;95366.25;;;-1.10;79.22
75051;BME280;63628;47.656;11.310;2023-02-28T10:56:42;95363.81;;;-1.12;79.72
75051;BME280;63628;47.656;11.310;2023-02-28T10:59:27;95356.97;;;-1.13;79.95
75051;BME280;63628;47.656;11.310;2023-02-28T11:01:54;95357.72;;;-1.03;78.34
75051;BME280;63628;47.656;11.310;2023-02-28T11:04:35;95350.31;;;-1.70;77.49
75051;BME280;63628;47.656;11.310;2023-02-28T11:07:05;95352.09;;;-1.16;75.41
75051;BME280;63628;47.656;11.310;2023-02-28T11:09:34;95352.97;;;-0.72;74.58
75051;BME280;63628;47.656;11.310;2023-02-28T11:12:02;95349.34;;;-0.43;72.85
75051;BME280;63628;47.656;11.310;2023-02-28T11:14:32;95351.72;;;-0.68;75.31
75051;BME280;63628;47.656;11.310;2023-02-28T11:17:11;95354.38;;;-0.95;70.90
75051;BME280;63628;47.656;11.310;2023-02-28T11:19:45;95354.41;;;-0.59;73.24
75051;BME280;63628;47.656;11.310;2023-02-28T11:22:18;95357.34;;;-0.37;72.96
75051;BME280;63628;47.656;11.310;2023-02-28T11:24:47;95348.16;;;-0.49;71.45
75051;BME280;63628;47.656;11.310;2023-02-28T11:27:45;95353.06;;;-0.63;72.07
75051;BME280;63628;47.656;11.310;2023-02-28T11:30:32;95354.31;;;-0.68;74.70
75051;BME280;63628;47.656;11.310;2023-02-28T11:33:00;95356.75;;;-0.66;75.41
75051;BME280;63628;47.656;11.310;2023-02-28T11:35:32;95360.25;;;-0.40;73.90
75051;BME280;63628;47.656;11.310;2023-02-28T11:38:01;95357.34;;;-0.72;77.30
75051;BME280;63628;47.656;11.310;2023-02-28T11:40:35;95354.03;;;-0.65;73.44
75051;BME280;63628;47.656;11.310;2023-02-28T11:43:17;95349.13;;;-0.50;74.90
75051;BME280;63628;47.656;11.310;2023-02-28T11:45:59;95350.31;;;-0.62;76.81
75051;BME280;63628;47.656;11.310;2023-02-28T11:48:34;95348.38;;;-0.78;77.75
75051;BME280;63628;47.656;11.310;2023-02-28T11:51:13;95345.31;;;-0.38;73.87
75051;BME280;63628;47.656;11.310;2023-02-28T11:53:55;95349.13;;;-0.85;78.59
75051;BME280;63628;47.656;11.310;2023-02-28T11:56:30;95349.50;;;-0.80;78.07
75051;BME280;63628;47.656;11.310;2023-02-28T11:59:11;95352.97;;;-0.89;79.58
75051;BME280;63628;47.656;11.310;2023-02-28T12:01:58;95350.22;;;-0.70;75.40
75051;BME280;63628;47.656;11.310;2023-02-28T12:04:30;95355.28;;;-0.86;79.38
75051;BME280;63628;47.656;11.310;2023-02-28T12:07:09;95349.13;;;-0.85;79.80
75051;BME280;63628;47.656;11.310;2023-02-28T12:09:46;95344.28;;;-0.80;80.27
75051;BME280;63628;47.656;11.310;2023-02-28T12:12:29;95350.16;;;-0.78;79.73
75051;BME280;63628;47.656;11.310;2023-02-28T12:15:12;95352.09;;;-0.80;80.26
75051;BME280;63628;47.656;11.310;2023-02-28T12:17:49;95344.28;;;-0.80;80.31
75051;BME280;63628;47.656;11.310;2023-02-28T12:20:26;95349.19;;;-0.77;80.37
75051;BME280;63628;47.656;11.310;2023-02-28T12:23:22;95344.97;;;-0.78;80.06
75051;BME280;63628;47.656;11.310;2023-02-28T12:26:07;95337.84;;;-0.76;80.18
75051;BME280;63628;47.656;11.310;2023-02-28T12:28:40;95341.91;;;-0.74;80.44
75051;BME280;63628;47.656;11.310;2023-02-28T12:31:12;95332.25;;;-0.46;79.45
75051;BME280;63628;47.656;11.310;2023-02-28T12:33:45;95340.00;;;-0.72;80.14
75051;BME280;63628;47.656;11.310;2023-02-28T12:36:16;95331.53;;;-0.74;79.95
75051;BME280;63628;47.656;11.310;2023-02-28T12:38:48;95332.03;;;-0.70;80.21
75051;BME280;63628;47.656;11.310;2023-02-28T12:41:18;95335.59;;;-0.71;80.34
75051;BME280;63628;47.656;11.310;2023-02-28T12:43:48;95323.44;;;-0.71;80.44
75051;BME280;63628;47.656;11.310;2023-02-28T12:46:21;95326.97;;;-0.36;78.14
75051;BME280;63628;47.656;11.310;2023-02-28T12:48:52;95328.31;;;0.28;72.42
75051;BME280;63628;47.656;11.310;2023-02-28T12:51:20;95329.84;;;0.05;73.65
75051;BME280;63628;47.656;11.310;2023-02-28T12:53:57;95321.22;;;-0.22;74.94
75051;BME280;63628;47.656;11.310;2023-02-28T12:56:34;95321.00;;;-0.03;76.29
75051;BME280;63628;47.656;11.310;2023-02-28T12:59:13;95312.28;;;0.49;73.50
75051;BME280;63628;47.656;11.310;2023-02-28T13:05:00;95313.28;;;0.14;70.84
75051;BME280;63628;47.656;11.310;2023-02-28T13:08:08;95315.56;;;0.09;70.75
75051;BME280;63628;47.656;11.310;2023-02-28T13:10:42;95316.75;;;0.22;69.71
75051;BME280;63628;47.656;11.310;2023-02-28T13:13:15;95317.38;;;0.16;72.63